createdAt,value
2018-03-28T00:00:07.069Z,32.37
2018-03-28T00:02:33.059Z,30.70
2018-03-28T00:04:59.024Z,34.13
2018-03-28T00:07:24.974Z,32.23
2018-03-28T00:09:51.122Z,32.33
2018-03-28T00:12:17.125Z,32.60
2018-03-28T00:14:50.105Z,26.00
2018-03-28T00:17:16.093Z,32.80
2018-03-28T00:19:42.050Z,30.83
2018-03-28T00:22:08.783Z,29.87
2018-03-28T00:24:34.744Z,30.03
2018-03-28T00:27:01.528Z,27.53
2018-03-28T00:29:27.452Z,29.87
2018-03-28T00:31:53.420Z,26.00
2018-03-28T00:34:19.416Z,23.87
2018-03-28T00:36:45.431Z,26.97
2018-03-28T00:39:12.131Z,26.60
2018-03-28T00:41:38.096Z,26.03
2018-03-28T00:44:04.087Z,28.93
2018-03-28T00:46:30.058Z,28.30
2018-03-28T00:48:56.015Z,25.27
2018-03-28T00:51:34.834Z,27.70
2018-03-28T00:54:00.791Z,24.23
2018-03-28T00:56:26.735Z,24.67
2018-03-28T00:58:53.476Z,22.30
2018-03-28T01:01:19.471Z,27.30
2018-03-28T01:03:45.472Z,26.60
2018-03-28T01:06:11.488Z,24.70
2018-03-28T01:08:37.453Z,29.43
2018-03-28T01:11:03.432Z,24.17
2018-03-28T01:13:29.412Z,26.77
2018-03-28T01:15:56.108Z,26.23
2018-03-28T01:18:22.237Z,23.17
2018-03-28T01:20:48.416Z,21.57
2018-03-28T01:23:14.400Z,21.83
2018-03-28T01:25:40.428Z,23.00
2018-03-28T01:28:06.433Z,23.77
2018-03-28T01:30:32.385Z,24.93
2018-03-28T01:32:59.093Z,23.97
2018-03-28T01:35:25.103Z,26.17
2018-03-28T01:37:51.085Z,25.80
2018-03-28T01:40:17.068Z,22.83
2018-03-28T01:42:43.050Z,24.17
2018-03-28T01:45:09.014Z,22.57
2018-03-28T01:47:34.973Z,21.27
2018-03-28T01:50:01.560Z,25.37
2018-03-28T01:52:27.532Z,20.13
2018-03-28T01:54:54.235Z,21.10
2018-03-28T01:57:20.361Z,24.70
2018-03-28T01:59:46.396Z,22.10
2018-03-28T02:02:12.357Z,20.47
2018-03-28T02:04:38.509Z,23.03
2018-03-28T02:07:04.470Z,23.00
2018-03-28T02:09:31.209Z,21.40
2018-03-28T02:11:58.143Z,23.57
2018-03-28T02:14:24.111Z,22.83
2018-03-28T02:16:50.832Z,22.77
2018-03-28T02:19:16.966Z,22.00
2018-03-28T02:21:43.020Z,24.70
2018-03-28T02:24:09.005Z,23.77
2018-03-28T02:26:35.013Z,25.60
2018-03-28T02:29:01.724Z,25.93
2018-03-28T02:31:27.710Z,21.50
2018-03-28T02:33:53.682Z,18.73
2018-03-28T02:36:19.715Z,21.43
2018-03-28T02:38:45.712Z,25.77
2018-03-28T02:41:12.620Z,26.13
2018-03-28T02:43:38.593Z,25.73
2018-03-28T02:46:05.297Z,27.30
2018-03-28T02:48:31.472Z,27.50
2018-03-28T02:50:57.437Z,23.90
2018-03-28T02:53:24.143Z,25.77
2018-03-28T02:55:50.287Z,25.10
2018-03-28T02:58:16.280Z,28.47
2018-03-28T03:00:42.233Z,28.33
2018-03-28T03:03:08.397Z,27.97
2018-03-28T03:05:34.366Z,31.80
2018-03-28T03:08:01.073Z,31.10
2018-03-28T03:10:27.225Z,28.13
2018-03-28T03:12:53.200Z,33.80
2018-03-28T03:15:19.209Z,34.30
2018-03-28T03:17:45.264Z,28.93
2018-03-28T03:20:11.969Z,31.97
2018-03-28T03:22:37.955Z,27.27
2018-03-28T03:25:04.690Z,30.73
2018-03-28T03:27:30.653Z,29.33
2018-03-28T03:29:56.617Z,29.77
2018-03-28T03:32:22.785Z,29.17
2018-03-28T03:34:48.767Z,27.60
2018-03-28T03:37:14.744Z,30.70
2018-03-28T03:39:40.737Z,39.13
2018-03-28T03:42:06.704Z,31.63
2018-03-28T03:44:32.677Z,32.10
2018-03-28T03:46:59.000Z,34.57
2018-03-28T03:49:24.974Z,30.10
2018-03-28T03:51:51.749Z,30.23
2018-03-28T03:54:17.748Z,28.53
2018-03-28T03:56:43.705Z,32.33
2018-03-28T03:59:09.664Z,33.63
2018-03-28T04:01:35.633Z,30.77
2018-03-28T04:04:01.606Z,27.37
2018-03-28T04:06:27.584Z,33.60
2018-03-28T04:08:53.673Z,31.83
2018-03-28T04:11:20.468Z,31.90
2018-03-28T04:13:46.458Z,27.30
2018-03-28T04:16:13.492Z,29.47
2018-03-28T04:18:39.448Z,26.60
2018-03-28T04:21:06.149Z,30.87
2018-03-28T04:23:32.181Z,28.67
2018-03-28T04:25:58.148Z,36.33
2018-03-28T04:28:24.104Z,25.27
2018-03-28T04:30:50.092Z,27.50
2018-03-28T04:33:16.131Z,27.27
2018-03-28T04:35:42.117Z,29.00
2018-03-28T04:38:08.821Z,34.27
2018-03-28T04:40:34.788Z,32.97
2018-03-28T04:43:00.749Z,33.20
2018-03-28T04:45:27.668Z,30.40
2018-03-28T04:47:53.644Z,36.87
2018-03-28T04:50:20.418Z,29.73
2018-03-28T04:52:46.421Z,29.03
2018-03-28T04:55:13.136Z,28.63
2018-03-28T04:57:39.125Z,29.10
2018-03-28T05:00:05.137Z,27.67
2018-03-28T05:02:31.097Z,29.87
2018-03-28T05:04:57.808Z,28.67
2018-03-28T05:07:23.797Z,26.53
2018-03-28T05:09:49.852Z,24.60
2018-03-28T05:12:15.841Z,23.00
2018-03-28T05:14:42.572Z,21.83
2018-03-28T05:17:08.550Z,28.40
2018-03-28T05:19:34.505Z,30.77
2018-03-28T05:22:00.489Z,30.03
2018-03-28T05:24:26.464Z,28.20
2018-03-28T05:26:52.456Z,32.47
2018-03-28T05:29:18.477Z,26.97
2018-03-28T05:31:44.477Z,25.47
2018-03-28T05:34:10.472Z,24.60
2018-03-28T05:36:36.445Z,27.43
2018-03-28T05:39:02.458Z,25.40
2018-03-28T05:41:29.187Z,24.97
2018-03-28T05:43:55.316Z,22.80
2018-03-28T05:46:21.292Z,21.90
2018-03-28T05:48:48.028Z,19.57
2018-03-28T05:51:14.856Z,21.50
2018-03-28T05:53:40.817Z,21.90
2018-03-28T05:56:07.522Z,22.63
2018-03-28T05:58:33.501Z,20.10
2018-03-28T06:00:59.461Z,18.00
2018-03-28T06:03:25.417Z,17.07
2018-03-28T06:05:51.711Z,19.67
2018-03-28T06:08:17.690Z,19.47
2018-03-28T06:10:43.670Z,17.73
2018-03-28T06:13:10.418Z,14.03
2018-03-28T06:15:36.389Z,17.70
2018-03-28T06:18:03.093Z,14.60
2018-03-28T06:20:29.456Z,13.00
2018-03-28T06:22:56.173Z,10.77
2018-03-28T06:25:22.138Z,13.00
2018-03-28T06:27:48.142Z,11.43
2018-03-28T06:30:14.118Z,10.33
2018-03-28T06:32:40.293Z,11.63
2018-03-28T06:35:07.724Z,9.97
2018-03-28T06:37:33.704Z,9.40
2018-03-28T06:39:59.673Z,7.23
2018-03-28T06:42:25.673Z,10.73
2018-03-28T06:44:51.686Z,8.03
2018-03-28T06:47:17.722Z,7.80
2018-03-28T06:49:43.863Z,7.43
2018-03-28T06:52:10.575Z,11.50
2018-03-28T06:54:36.544Z,5.93
2018-03-28T06:57:02.945Z,12.27
2018-03-28T06:59:28.909Z,6.43
2018-03-28T07:01:54.881Z,9.27
2018-03-28T07:04:21.683Z,6.13
2018-03-28T07:06:47.692Z,4.37
2018-03-28T07:09:13.664Z,8.30
2018-03-28T07:11:39.669Z,5.80
2018-03-28T07:14:05.656Z,5.83
2018-03-28T07:16:31.626Z,8.50
2018-03-28T07:18:57.822Z,9.50
2018-03-28T07:21:23.829Z,7.83
2018-03-28T07:23:49.837Z,9.47
2018-03-28T07:26:15.863Z,9.57
2018-03-28T07:28:41.845Z,7.30
2018-03-28T07:31:07.813Z,8.20
2018-03-28T07:33:33.841Z,9.60
2018-03-28T07:35:59.813Z,15.70
2018-03-28T07:38:25.838Z,4.27
2018-03-28T07:40:52.586Z,8.87
2018-03-28T07:43:19.316Z,7.33
2018-03-28T07:45:45.315Z,5.27
2018-03-28T07:48:11.293Z,4.80
2018-03-28T07:50:38.013Z,7.53
2018-03-28T07:53:03.978Z,7.70
2018-03-28T07:55:29.983Z,8.20
2018-03-28T07:57:55.973Z,7.60
2018-03-28T08:00:22.699Z,8.07
2018-03-28T08:02:50.212Z,8.20
2018-03-28T08:05:16.222Z,6.57
2018-03-28T08:07:42.937Z,6.70
2018-03-28T08:10:09.092Z,7.33
2018-03-28T08:12:35.045Z,9.40
2018-03-28T08:15:01.001Z,6.53
2018-03-28T08:17:27.737Z,8.77
2018-03-28T08:19:53.721Z,7.83
2018-03-28T08:22:19.762Z,9.53
2018-03-28T08:24:45.835Z,7.90
2018-03-28T08:27:11.802Z,7.17
2018-03-28T08:29:37.776Z,8.83
2018-03-28T08:32:03.748Z,6.83
2018-03-28T08:34:29.718Z,6.27
2018-03-28T08:36:55.688Z,8.43
2018-03-28T08:39:21.664Z,8.70
2018-03-28T08:41:48.399Z,7.87
2018-03-28T08:44:14.384Z,9.10
2018-03-28T08:46:40.381Z,6.70
2018-03-28T08:49:07.141Z,10.50
2018-03-28T08:51:33.854Z,9.03
2018-03-28T08:53:59.847Z,6.27
2018-03-28T08:56:25.835Z,5.10
2018-03-28T08:58:51.809Z,6.30
2018-03-28T09:01:18.557Z,6.13
2018-03-28T09:03:45.304Z,8.10
2018-03-28T09:06:12.048Z,6.80
2018-03-28T09:08:38.178Z,6.97
2018-03-28T09:11:04.141Z,10.23
2018-03-28T09:13:30.864Z,7.77
2018-03-28T09:15:56.840Z,11.13
2018-03-28T09:18:23.697Z,9.93
2018-03-28T09:20:49.661Z,9.33
2018-03-28T09:23:15.837Z,6.20
2018-03-28T09:25:41.814Z,5.33
2018-03-28T09:28:07.778Z,7.57
2018-03-28T09:30:33.777Z,6.87
2018-03-28T09:32:59.737Z,9.87
2018-03-28T09:35:25.730Z,10.37
2018-03-28T09:37:52.486Z,17.13
2018-03-28T09:40:19.220Z,8.03
2018-03-28T09:42:45.214Z,10.90
2018-03-28T09:45:11.219Z,8.77
2018-03-28T09:47:37.924Z,6.80
2018-03-28T09:50:03.884Z,12.20
2018-03-28T09:52:29.883Z,11.93
2018-03-28T09:54:55.848Z,9.20
2018-03-28T09:57:21.837Z,12.57
2018-03-28T09:59:47.985Z,8.97
2018-03-28T10:02:13.977Z,9.17
2018-03-28T10:04:46.938Z,13.70
2018-03-28T10:07:12.953Z,9.47
2018-03-28T10:09:38.928Z,11.53
2018-03-28T10:12:04.949Z,8.27
2018-03-28T10:14:30.975Z,8.53
2018-03-28T10:16:56.956Z,10.50
2018-03-28T10:19:23.701Z,14.37
2018-03-28T10:21:49.683Z,15.37
2018-03-28T10:24:15.693Z,9.83
2018-03-28T10:26:42.397Z,13.17
2018-03-28T10:29:08.393Z,11.20
2018-03-28T10:31:34.371Z,12.50
2018-03-28T10:34:00.342Z,7.60
2018-03-28T10:36:27.078Z,9.07
2018-03-28T10:38:53.057Z,12.70
2018-03-28T10:41:19.057Z,10.83
2018-03-28T10:43:45.109Z,11.03
2018-03-28T10:46:11.824Z,6.87
2018-03-28T10:48:37.885Z,10.27
2018-03-28T10:51:03.797Z,6.43
2018-03-28T10:53:29.755Z,8.67
2018-03-28T10:55:55.709Z,11.17
2018-03-28T10:58:22.607Z,13.70
2018-03-28T11:00:48.597Z,8.60
2018-03-28T11:03:14.593Z,9.20
2018-03-28T11:05:40.581Z,10.07
2018-03-28T11:08:06.537Z,8.40
2018-03-28T11:10:32.509Z,7.57
2018-03-28T11:12:58.516Z,15.33
2018-03-28T11:15:24.524Z,15.70
2018-03-28T11:17:50.561Z,9.90
2018-03-28T11:20:16.758Z,6.60
2018-03-28T11:22:42.737Z,8.17
2018-03-28T11:25:08.750Z,14.00
2018-03-28T11:27:35.689Z,5.77
2018-03-28T11:30:01.668Z,7.23
2018-03-28T11:32:27.660Z,6.83
2018-03-28T11:34:53.693Z,8.40
2018-03-28T11:37:19.726Z,3.30
2018-03-28T11:39:45.791Z,6.43
2018-03-28T11:42:12.852Z,6.97
2018-03-28T11:44:39.584Z,11.40
2018-03-28T11:47:05.569Z,7.70
2018-03-28T11:49:31.602Z,6.93
2018-03-28T11:51:57.582Z,13.13
2018-03-28T11:54:23.568Z,5.57
2018-03-28T11:56:49.623Z,7.23
2018-03-28T11:59:15.666Z,5.50
2018-03-28T12:01:41.633Z,8.33
2018-03-28T12:04:07.769Z,5.83
2018-03-28T12:06:33.793Z,6.37
2018-03-28T12:08:59.766Z,8.23
2018-03-28T12:11:26.504Z,9.73
2018-03-28T12:13:52.502Z,7.23
2018-03-28T12:16:18.485Z,7.83
2018-03-28T12:18:44.718Z,8.80
2018-03-28T12:21:10.678Z,8.60
2018-03-28T12:23:37.380Z,10.13
2018-03-28T12:26:03.430Z,9.13
2018-03-28T12:28:29.423Z,11.90
2018-03-28T12:30:55.484Z,11.23
2018-03-28T12:33:21.555Z,10.13
2018-03-28T12:35:47.587Z,9.60
2018-03-28T12:38:13.545Z,9.07
2018-03-28T12:40:40.276Z,7.50
2018-03-28T12:43:06.233Z,12.03
2018-03-28T12:45:32.940Z,9.63
2018-03-28T12:47:58.960Z,6.83
2018-03-28T12:50:24.936Z,8.27
2018-03-28T12:52:50.991Z,9.03
2018-03-28T12:55:17.036Z,11.03
2018-03-28T12:57:43.037Z,11.93
2018-03-28T13:00:09.029Z,12.53
2018-03-28T13:02:35.031Z,8.40
2018-03-28T13:05:01.001Z,5.57
2018-03-28T13:07:27.020Z,10.57
2018-03-28T13:09:53.307Z,7.27
2018-03-28T13:12:19.331Z,11.50
2018-03-28T13:14:45.384Z,6.70
2018-03-28T13:17:11.441Z,7.90
2018-03-28T13:19:37.421Z,9.20
2018-03-28T13:22:03.399Z,10.50
2018-03-28T13:24:29.442Z,9.73
2018-03-28T13:26:55.422Z,9.27
2018-03-28T13:29:21.421Z,9.03
2018-03-28T13:31:47.427Z,8.63
2018-03-28T13:34:13.421Z,7.47
2018-03-28T13:36:40.147Z,10.70
2018-03-28T13:39:06.278Z,7.23
2018-03-28T13:41:32.254Z,4.87
2018-03-28T13:43:58.231Z,10.57
2018-03-28T13:46:24.389Z,7.10
2018-03-28T13:48:50.402Z,8.27
2018-03-28T13:51:16.464Z,8.00
2018-03-28T13:53:42.460Z,11.70
2018-03-28T13:56:08.422Z,9.23
2018-03-28T13:58:34.377Z,9.33
2018-03-28T14:01:00.860Z,7.53
2018-03-28T14:03:26.837Z,7.93
2018-03-28T14:05:52.882Z,8.80
2018-03-28T14:08:18.942Z,14.63
2018-03-28T14:10:44.950Z,10.00
2018-03-28T14:13:10.928Z,11.43
2018-03-28T14:15:37.672Z,10.10
2018-03-28T14:18:04.408Z,10.07
2018-03-28T14:20:31.296Z,8.83
2018-03-28T14:22:58.184Z,6.90
2018-03-28T14:25:24.197Z,10.33
2018-03-28T14:27:50.203Z,13.53
2018-03-28T14:30:16.309Z,11.37
2018-03-28T14:32:42.298Z,13.00
2018-03-28T14:35:09.024Z,10.20
2018-03-28T14:37:35.779Z,12.00
2018-03-28T14:40:01.837Z,14.47
2018-03-28T14:42:27.798Z,13.33
2018-03-28T14:44:53.841Z,14.37
2018-03-28T14:47:19.852Z,9.70
2018-03-28T14:49:46.637Z,9.93
2018-03-28T14:52:12.645Z,9.77
2018-03-28T14:54:39.356Z,10.70
2018-03-28T14:57:05.368Z,10.93
2018-03-28T14:59:31.549Z,12.80
2018-03-28T15:01:57.509Z,10.33
2018-03-28T15:04:24.255Z,7.30
2018-03-28T15:06:51.013Z,7.60
2018-03-28T15:09:17.822Z,11.10
2018-03-28T15:11:43.813Z,14.57
2018-03-28T15:14:10.578Z,12.03
2018-03-28T15:16:36.577Z,11.90
2018-03-28T15:19:02.536Z,11.23
2018-03-28T15:21:29.434Z,14.93
2018-03-28T15:23:55.413Z,11.07
2018-03-28T15:26:22.193Z,14.67
2018-03-28T15:28:48.266Z,9.57
2018-03-28T15:31:14.253Z,8.73
2018-03-28T15:33:40.953Z,9.43
2018-03-28T15:36:07.107Z,10.43
2018-03-28T15:38:33.068Z,10.67
2018-03-28T15:40:59.045Z,11.43
2018-03-28T15:43:25.387Z,12.63
2018-03-28T15:45:51.421Z,11.37
2018-03-28T15:48:17.436Z,13.43
2018-03-28T15:50:44.199Z,11.17
2018-03-28T15:53:10.209Z,15.43
2018-03-28T15:55:36.181Z,13.30
2018-03-28T15:58:02.214Z,9.53
2018-03-28T16:00:28.209Z,12.53
2018-03-28T16:02:54.927Z,11.70
2018-03-28T16:05:21.116Z,9.97
2018-03-28T16:07:47.926Z,10.10
2018-03-28T16:10:14.106Z,12.77
2018-03-28T16:12:40.914Z,8.67
2018-03-28T16:15:06.873Z,9.47
2018-03-28T16:17:33.610Z,10.80
2018-03-28T16:19:59.702Z,14.20
2018-03-28T16:22:26.424Z,9.83
2018-03-28T16:24:52.421Z,17.50
2018-03-28T16:27:18.460Z,11.37
2018-03-28T16:29:44.531Z,11.80
2018-03-28T16:32:10.510Z,9.67
2018-03-28T16:34:39.371Z,11.03
2018-03-28T16:37:06.093Z,9.03
2018-03-28T16:39:32.077Z,7.60
2018-03-28T16:41:58.876Z,12.47
2018-03-28T16:44:24.873Z,17.50
2018-03-28T16:46:51.601Z,7.63
2018-03-28T16:49:17.782Z,12.27
2018-03-28T16:51:43.766Z,8.70
2018-03-28T16:54:09.751Z,12.30
2018-03-28T16:56:35.774Z,10.13
2018-03-28T16:59:01.753Z,11.03
2018-03-28T17:01:27.765Z,12.30
2018-03-28T17:03:53.780Z,10.83
2018-03-28T17:06:20.593Z,12.00
2018-03-28T17:08:46.601Z,11.33
2018-03-28T17:11:12.752Z,12.53
2018-03-28T17:13:38.734Z,11.67
2018-03-28T17:16:05.493Z,16.87
2018-03-28T17:18:32.438Z,14.07
2018-03-28T17:20:58.404Z,12.57
2018-03-28T17:23:24.444Z,16.83
2018-03-28T17:25:50.498Z,11.70
2018-03-28T17:28:16.516Z,11.30
2018-03-28T17:30:42.516Z,9.83
2018-03-28T17:33:08.539Z,10.73
2018-03-28T17:35:35.288Z,14.97
2018-03-28T17:38:01.282Z,11.97
2018-03-28T17:40:27.318Z,11.13
2018-03-28T17:42:53.372Z,13.27
2018-03-28T17:45:19.311Z,14.13
2018-03-28T17:47:45.412Z,8.43
2018-03-28T17:50:12.136Z,8.27
2018-03-28T17:52:38.101Z,10.20
2018-03-28T17:55:04.852Z,7.00
2018-03-28T17:57:31.624Z,12.00
2018-03-28T17:59:57.619Z,12.13
2018-03-28T18:02:23.718Z,10.87
2018-03-28T18:04:49.729Z,13.63
2018-03-28T18:07:15.746Z,15.60
2018-03-28T18:09:42.477Z,15.70
2018-03-28T18:12:08.606Z,33.30
2018-03-28T18:14:34.591Z,15.30
2018-03-28T18:17:01.377Z,17.47
2018-03-28T18:19:27.356Z,12.63
2018-03-28T18:21:53.365Z,14.77
2018-03-28T18:24:19.419Z,15.87
2018-03-28T18:26:45.448Z,13.17
2018-03-28T18:29:11.461Z,14.57
2018-03-28T18:31:37.490Z,17.27
2018-03-28T18:34:03.481Z,21.17
2018-03-28T18:36:30.227Z,16.23
2018-03-28T18:38:56.229Z,17.90
2018-03-28T18:41:22.255Z,16.57
2018-03-28T18:43:48.236Z,22.20
2018-03-28T18:46:14.290Z,19.07
2018-03-28T18:48:41.003Z,19.60
2018-03-28T18:51:06.997Z,17.70
2018-03-28T18:53:33.064Z,18.93
2018-03-28T18:55:59.045Z,21.53
2018-03-28T18:58:25.779Z,20.23
2018-03-28T19:00:52.536Z,21.23
2018-03-28T19:03:19.422Z,20.90
2018-03-28T19:05:45.480Z,23.13
2018-03-28T19:08:11.480Z,23.03
2018-03-28T19:10:38.270Z,24.30
2018-03-28T19:13:04.261Z,22.10
2018-03-28T19:15:30.276Z,23.20
2018-03-28T19:17:56.242Z,24.60
2018-03-28T19:20:22.962Z,22.17
2018-03-28T19:22:49.081Z,20.77
2018-03-28T19:25:15.160Z,20.83
2018-03-28T19:27:41.156Z,24.87
2018-03-28T19:30:07.120Z,27.30
2018-03-28T19:32:33.087Z,21.67
2018-03-28T19:34:59.791Z,32.30
2018-03-28T19:37:25.949Z,21.33
2018-03-28T19:39:51.922Z,25.77
2018-03-28T19:42:18.661Z,24.43
2018-03-28T19:44:45.415Z,24.47
2018-03-28T19:47:12.105Z,21.70
2018-03-28T19:49:38.066Z,29.93
2018-03-28T19:52:04.048Z,24.20
2018-03-28T19:54:30.776Z,24.73
2018-03-28T19:56:56.744Z,20.87
2018-03-28T19:59:22.740Z,17.97
2018-03-28T20:01:48.756Z,20.03
2018-03-28T20:04:14.925Z,16.90
2018-03-28T20:06:41.681Z,12.17
2018-03-28T20:09:07.654Z,6.80
2018-03-28T20:11:33.609Z,4.03
2018-03-28T20:13:59.790Z,2.10
2018-03-28T20:16:25.769Z,1.10
2018-03-28T20:18:51.858Z,0.90
2018-03-28T20:21:18.817Z,0.80
2018-03-28T20:23:45.032Z,1.97
2018-03-28T20:26:11.004Z,3.20
2018-03-28T20:28:37.756Z,0.70
2018-03-28T20:31:03.727Z,1.53
2018-03-28T20:33:29.681Z,0.93
2018-03-28T20:35:55.844Z,1.20
2018-03-28T20:38:21.821Z,0.83
2018-03-28T20:40:47.801Z,0.60
2018-03-28T20:43:13.955Z,0.77
2018-03-28T20:45:39.922Z,0.83
2018-03-28T20:48:06.622Z,0.80
2018-03-28T20:50:32.612Z,2.40
2018-03-28T20:52:59.326Z,1.03
2018-03-28T20:55:25.395Z,0.83
2018-03-28T20:57:52.129Z,0.70
2018-03-28T21:00:18.922Z,1.13
2018-03-28T21:02:44.909Z,0.83
2018-03-28T21:05:11.045Z,1.40
2018-03-28T21:07:37.018Z,1.03
2018-03-28T21:10:03.767Z,2.23
2018-03-28T21:12:30.603Z,2.17
2018-03-28T21:14:56.557Z,1.70
2018-03-28T21:17:23.263Z,1.57
2018-03-28T21:19:49.361Z,1.53
2018-03-28T21:22:15.402Z,1.47
2018-03-28T21:24:41.395Z,2.37
2018-03-28T21:27:08.549Z,2.27
2018-03-28T21:29:34.519Z,2.00
2018-03-28T21:32:00.510Z,3.20
2018-03-28T21:34:26.481Z,3.43
2018-03-28T21:36:53.366Z,1.50
2018-03-28T21:39:19.344Z,2.27
2018-03-28T21:41:45.547Z,2.10
2018-03-28T21:44:11.537Z,2.03
2018-03-28T21:46:37.553Z,1.90
2018-03-28T21:49:03.549Z,1.50
2018-03-28T21:51:29.565Z,1.80
2018-03-28T21:53:56.281Z,1.90
2018-03-28T21:56:22.273Z,2.03
2018-03-28T21:58:48.245Z,1.80
2018-03-28T22:01:14.256Z,2.17
2018-03-28T22:03:40.261Z,2.30
2018-03-28T22:06:06.959Z,1.97
2018-03-28T22:08:32.919Z,2.27
2018-03-28T22:10:58.885Z,2.30
2018-03-28T22:13:25.597Z,2.93
2018-03-28T22:15:51.569Z,2.67
2018-03-28T22:18:18.317Z,2.60
2018-03-28T22:20:45.050Z,2.93
2018-03-28T22:23:11.010Z,2.23
2018-03-28T22:25:37.945Z,2.50
2018-03-28T22:28:03.910Z,2.23
2018-03-28T22:30:30.615Z,2.20
2018-03-28T22:32:56.637Z,2.80
2018-03-28T22:35:22.597Z,2.77
2018-03-28T22:37:48.562Z,3.83
2018-03-28T22:40:15.303Z,3.10
2018-03-28T22:42:41.281Z,2.53
2018-03-28T22:45:07.241Z,3.67
2018-03-28T22:47:33.266Z,2.70
2018-03-28T22:49:59.229Z,3.83
2018-03-28T22:52:25.189Z,4.80
2018-03-28T22:54:51.913Z,3.37
2018-03-28T22:57:17.933Z,3.23
2018-03-28T22:59:43.865Z,3.00
2018-03-28T23:02:09.837Z,3.03
2018-03-28T23:04:35.820Z,3.00
2018-03-28T23:07:01.778Z,3.17
2018-03-28T23:09:27.781Z,2.60
2018-03-28T23:11:53.742Z,3.80
2018-03-28T23:14:19.744Z,3.97
2018-03-28T23:16:45.950Z,3.40
2018-03-28T23:19:12.664Z,3.70
2018-03-28T23:21:38.632Z,3.20
2018-03-28T23:24:04.661Z,3.43
2018-03-28T23:26:30.846Z,3.03
2018-03-28T23:28:56.813Z,2.87
2018-03-28T23:31:22.972Z,2.43
2018-03-28T23:33:49.017Z,2.10
2018-03-28T23:36:15.005Z,2.17
2018-03-28T23:38:40.993Z,2.77
2018-03-28T23:41:06.972Z,2.40
2018-03-28T23:43:32.937Z,2.00
2018-03-28T23:45:58.911Z,2.40
2018-03-28T23:48:25.610Z,2.60
2018-03-28T23:50:51.826Z,2.50
2018-03-28T23:53:17.821Z,4.77
2018-03-28T23:55:43.789Z,2.20
2018-03-28T23:58:09.780Z,2.57
